createdAt,value
2019-01-02T00:17:40.294Z,75.68
2019-01-02T00:46:13.333Z,75.64
2019-01-02T01:14:52.339Z,75.16
2019-01-02T01:43:31.213Z,75.5
2019-01-02T02:12:03.457Z,75.47
2019-01-02T02:40:40.143Z,75.82
2019-01-02T03:09:16.505Z,76.29
2019-01-02T03:37:50.889Z,76.24
2019-01-02T04:06:26.969Z,76.88
2019-01-02T04:35:02.781Z,77.39
2019-01-02T05:03:36.474Z,77.49
2019-01-02T05:32:15.020Z,77.28
2019-01-02T06:00:54.551Z,77.03
2019-01-02T06:29:33.677Z,76.69
2019-01-02T06:58:11.669Z,76.02
2019-01-02T07:26:50.941Z,75.18
2019-01-02T07:55:27.589Z,74.51
2019-01-02T08:24:01.742Z,72.5
2019-01-02T08:52:44.092Z,70.53
2019-01-02T09:21:19.308Z,68.41
2019-01-02T09:49:55.531Z,66.24
2019-01-02T10:18:34.407Z,64.88
2019-01-02T10:47:14.251Z,63.36
2019-01-02T11:15:46.324Z,68.76
2019-01-02T11:44:21.617Z,70.71
2019-01-02T12:12:51.896Z,66.78
2019-01-02T12:41:32.772Z,63.6
2019-01-02T13:10:14.559Z,60.87
2019-01-02T13:39:01.991Z,59.72
2019-01-02T14:07:19.421Z,58.84
2019-01-02T14:35:55.417Z,58.27
2019-01-02T15:04:30.036Z,59.11
2019-01-02T15:33:07.867Z,64.46
2019-01-02T16:01:34.935Z,73.85
2019-01-02T16:30:10.829Z,74.34
2019-01-02T16:58:49.272Z,73
2019-01-02T17:27:31.486Z,68.26
2019-01-02T17:56:10.932Z,66.85
2019-01-02T18:24:48.271Z,65.67
2019-01-02T18:53:27.093Z,62.86
2019-01-02T19:22:03.976Z,61.58
2019-01-02T19:50:42.495Z,63.54
2019-01-02T20:19:16.918Z,60.15
2019-01-02T20:47:51.218Z,60.5
2019-01-02T21:16:26.145Z,61.69
2019-01-02T21:45:00.404Z,62.44
2019-01-02T22:13:34.448Z,63.09
2019-01-02T22:42:13.001Z,63.77
2019-01-02T23:10:45.848Z,64.77
2019-01-02T23:39:24.165Z,65.24
